createdAt,value
2017-07-08T00:00:43.363Z,0
2017-07-08T00:01:43.396Z,0
2017-07-08T00:02:43.434Z,0
2017-07-08T00:03:43.375Z,0
2017-07-08T00:04:43.367Z,0
2017-07-08T00:05:43.360Z,0
2017-07-08T00:06:43.370Z,0
2017-07-08T00:07:43.365Z,0
2017-07-08T00:08:43.366Z,0
2017-07-08T00:09:43.346Z,0
2017-07-08T00:10:43.351Z,0
2017-07-08T00:11:43.332Z,0
2017-07-08T00:12:43.367Z,0
2017-07-08T00:13:43.331Z,0
2017-07-08T00:14:43.347Z,0
2017-07-08T00:15:43.084Z,0
2017-07-08T00:16:43.024Z,0
2017-07-08T00:17:43.351Z,0
2017-07-08T00:18:43.339Z,0
2017-07-08T00:19:43.027Z,0
2017-07-08T00:20:43.311Z,0
2017-07-08T00:21:43.318Z,0
2017-07-08T00:22:42.679Z,0
2017-07-08T00:23:42.376Z,0
2017-07-08T00:24:43.335Z,0
2017-07-08T00:25:43.000Z,0
2017-07-08T00:26:42.996Z,0
2017-07-08T00:27:43.304Z,0
2017-07-08T00:28:42.993Z,0
2017-07-08T00:29:42.972Z,0
2017-07-08T00:30:42.995Z,0
2017-07-08T00:31:42.969Z,0
2017-07-08T00:32:43.315Z,0
2017-07-08T00:33:43.277Z,0
2017-07-08T00:34:42.976Z,0
2017-07-08T00:35:43.287Z,0
2017-07-08T00:36:43.314Z,0
2017-07-08T00:37:42.985Z,0
2017-07-08T00:38:43.291Z,0
2017-07-08T00:39:43.282Z,0
2017-07-08T00:40:42.660Z,0
2017-07-08T00:41:43.277Z,0
2017-07-08T00:42:42.966Z,0
2017-07-08T00:43:43.268Z,0
2017-07-08T00:44:42.650Z,0
2017-07-08T00:45:42.632Z,0
2017-07-08T00:46:43.274Z,0
2017-07-08T00:47:42.935Z,0
2017-07-08T00:48:43.284Z,0
2017-07-08T00:49:43.240Z,0
2017-07-08T00:50:42.627Z,0
2017-07-08T00:51:42.938Z,0
2017-07-08T00:52:42.950Z,0
2017-07-08T00:53:43.249Z,0
2017-07-08T00:54:43.257Z,0
2017-07-08T00:55:43.269Z,0
2017-07-08T00:56:42.941Z,0
2017-07-08T00:57:43.248Z,0
2017-07-08T00:58:42.930Z,0
2017-07-08T00:59:42.581Z,0
2017-07-08T01:00:42.931Z,0
2017-07-08T01:01:43.207Z,0
2017-07-08T01:02:43.241Z,0
2017-07-08T01:03:43.227Z,0
2017-07-08T01:04:42.907Z,0
2017-07-08T01:05:43.232Z,0
2017-07-08T01:06:42.905Z,0
2017-07-08T01:07:43.219Z,0
2017-07-08T01:08:43.205Z,0
2017-07-08T01:09:43.201Z,0
2017-07-08T01:10:43.204Z,0
2017-07-08T01:11:43.213Z,0
2017-07-08T01:12:42.575Z,0
2017-07-08T01:13:43.200Z,0
2017-07-08T01:14:43.207Z,0
2017-07-08T01:15:43.183Z,0
2017-07-08T01:16:42.891Z,0
2017-07-08T01:17:42.868Z,0
2017-07-08T01:18:42.889Z,0
2017-07-08T01:19:43.255Z,0
2017-07-08T01:20:43.208Z,0
2017-07-08T01:21:42.851Z,0
2017-07-08T01:22:42.858Z,0
2017-07-08T01:23:42.543Z,0
2017-07-08T01:24:43.182Z,0
2017-07-08T01:25:43.176Z,0
2017-07-08T01:26:43.162Z,0
2017-07-08T01:27:43.160Z,0
2017-07-08T01:28:43.159Z,0
2017-07-08T01:29:43.210Z,0
2017-07-08T01:30:43.164Z,0
2017-07-08T01:31:42.213Z,0
2017-07-08T01:32:43.164Z,0
2017-07-08T01:33:42.845Z,0
2017-07-08T01:34:43.159Z,0
2017-07-08T01:35:42.814Z,0
2017-07-08T01:36:43.157Z,0
2017-07-08T01:37:43.124Z,0
2017-07-08T01:38:43.133Z,0
2017-07-08T01:39:43.127Z,0
2017-07-08T01:40:42.825Z,0
2017-07-08T01:41:42.824Z,0
2017-07-08T01:42:42.820Z,0
2017-07-08T01:43:42.881Z,0
2017-07-08T01:44:42.792Z,0
2017-07-08T01:45:42.812Z,0
2017-07-08T01:46:42.792Z,0
2017-07-08T01:47:42.815Z,0
2017-07-08T01:48:43.107Z,0
2017-07-08T01:49:43.116Z,0
2017-07-08T01:50:43.085Z,0
2017-07-08T01:51:42.787Z,0
2017-07-08T01:52:42.791Z,0
2017-07-08T01:53:43.170Z,0
2017-07-08T01:54:43.112Z,0
2017-07-08T01:55:42.852Z,0
2017-07-08T01:56:42.766Z,0
2017-07-08T01:57:43.036Z,0
2017-07-08T01:58:43.085Z,0
2017-07-08T01:59:43.123Z,0
2017-07-08T02:00:43.069Z,0
2017-07-08T02:01:43.096Z,0
2017-07-08T02:02:43.069Z,0
2017-07-08T02:03:43.090Z,0
2017-07-08T02:04:42.756Z,0
2017-07-08T02:05:43.073Z,4
2017-07-08T02:06:43.067Z,4
2017-07-08T02:07:42.438Z,4
2017-07-08T02:08:42.412Z,4
2017-07-08T02:09:42.112Z,4
2017-07-08T02:10:43.073Z,4
2017-07-08T02:11:43.062Z,4
2017-07-08T02:12:43.024Z,4
2017-07-08T02:13:43.041Z,4
2017-07-08T02:14:43.061Z,4
2017-07-08T02:15:43.037Z,4
2017-07-08T02:16:42.726Z,8
2017-07-08T02:17:43.016Z,8
2017-07-08T02:18:42.716Z,12
2017-07-08T02:19:42.793Z,8
2017-07-08T02:20:42.714Z,8
2017-07-08T02:21:43.014Z,16
2017-07-08T02:22:42.709Z,16
2017-07-08T02:23:42.704Z,16
2017-07-08T02:24:42.672Z,16
2017-07-08T02:25:42.712Z,20
2017-07-08T02:26:42.694Z,24
2017-07-08T02:27:43.001Z,24
2017-07-08T02:28:42.985Z,32
2017-07-08T02:29:42.985Z,36
2017-07-08T02:30:43.055Z,40
2017-07-08T02:31:42.674Z,40
2017-07-08T02:32:42.689Z,48
2017-07-08T02:33:42.966Z,48
2017-07-08T02:34:42.665Z,56
2017-07-08T02:35:42.978Z,60
2017-07-08T02:36:42.666Z,68
2017-07-08T02:37:42.958Z,76
2017-07-08T02:38:42.979Z,84
2017-07-08T02:39:42.641Z,88
2017-07-08T02:40:43.177Z,96
2017-07-08T02:41:42.947Z,104
2017-07-08T02:42:42.955Z,112
2017-07-08T02:43:42.943Z,120
2017-07-08T02:44:42.955Z,132
2017-07-08T02:45:42.964Z,144
2017-07-08T02:46:42.937Z,152
2017-07-08T02:47:42.619Z,164
2017-07-08T02:48:42.959Z,180
2017-07-08T02:49:42.967Z,196
2017-07-08T02:50:42.933Z,208
2017-07-08T02:51:42.593Z,228
2017-07-08T02:52:42.615Z,244
2017-07-08T02:53:42.906Z,260
2017-07-08T02:54:42.922Z,280
2017-07-08T02:55:42.912Z,300
2017-07-08T02:56:42.915Z,324
2017-07-08T02:57:42.577Z,348
2017-07-08T02:58:42.586Z,376
2017-07-08T02:59:42.579Z,404
2017-07-08T03:00:42.902Z,428
2017-07-08T03:01:42.890Z,460
2017-07-08T03:02:42.564Z,488
2017-07-08T03:03:42.875Z,520
2017-07-08T03:04:42.867Z,556
2017-07-08T03:05:42.562Z,588
2017-07-08T03:06:42.858Z,628
2017-07-08T03:07:42.873Z,660
2017-07-08T03:08:42.852Z,692
2017-07-08T03:09:42.555Z,724
2017-07-08T03:10:42.845Z,756
2017-07-08T03:11:42.862Z,788
2017-07-08T03:12:42.527Z,824
2017-07-08T03:13:42.854Z,868
2017-07-08T03:14:42.531Z,908
2017-07-08T03:15:42.524Z,964
2017-07-08T03:16:42.916Z,1028
2017-07-08T03:17:42.529Z,1100
2017-07-08T03:18:42.518Z,1196
2017-07-08T03:19:42.827Z,1304
2017-07-08T03:20:42.792Z,1412
2017-07-08T03:21:42.505Z,1512
2017-07-08T03:22:42.176Z,1600
2017-07-08T03:23:42.814Z,1684
2017-07-08T03:24:42.490Z,1772
2017-07-08T03:25:42.808Z,1876
2017-07-08T03:26:42.847Z,1964
2017-07-08T03:27:42.788Z,2032
2017-07-08T03:28:42.455Z,2064
2017-07-08T03:29:42.794Z,2116
2017-07-08T03:30:42.793Z,2152
2017-07-08T03:31:42.156Z,2108
2017-07-08T03:32:42.765Z,2012
2017-07-08T03:33:42.811Z,1968
2017-07-08T03:34:42.455Z,2028
2017-07-08T03:35:42.772Z,2100
2017-07-08T03:36:42.776Z,2196
2017-07-08T03:37:42.750Z,2332
2017-07-08T03:38:42.771Z,2384
2017-07-08T03:39:42.770Z,2412
2017-07-08T03:40:42.116Z,2432
2017-07-08T03:41:42.757Z,2340
2017-07-08T03:42:42.741Z,2200
2017-07-08T03:43:42.762Z,2040
2017-07-08T03:44:42.715Z,1880
2017-07-08T03:45:42.107Z,1740
2017-07-08T03:46:42.728Z,1612
2017-07-08T03:47:42.416Z,1524
2017-07-08T03:48:42.401Z,1468
2017-07-08T03:49:42.715Z,1456
2017-07-08T03:50:42.084Z,1464
2017-07-08T03:51:42.387Z,1488
2017-07-08T03:52:41.771Z,1524
2017-07-08T03:53:42.067Z,1568
2017-07-08T03:54:42.075Z,1612
2017-07-08T03:55:42.685Z,1656
2017-07-08T03:56:42.716Z,1724
2017-07-08T03:57:42.052Z,1856
2017-07-08T03:58:42.707Z,2032
2017-07-08T03:59:42.685Z,2208
2017-07-08T04:00:42.702Z,2372
2017-07-08T04:01:42.664Z,2568
2017-07-08T04:02:42.663Z,2740
2017-07-08T04:03:42.669Z,2880
2017-07-08T04:04:42.686Z,2988
2017-07-08T04:05:42.650Z,3112
2017-07-08T04:06:42.669Z,3256
2017-07-08T04:07:42.351Z,3388
2017-07-08T04:08:42.682Z,3468
2017-07-08T04:09:42.655Z,3516
2017-07-08T04:10:42.660Z,3580
2017-07-08T04:11:42.320Z,3684
2017-07-08T04:12:42.667Z,3764
2017-07-08T04:13:42.316Z,3732
2017-07-08T04:14:42.347Z,3600
2017-07-08T04:15:42.634Z,3472
2017-07-08T04:16:42.644Z,3420
2017-07-08T04:17:42.307Z,3392
2017-07-08T04:18:42.648Z,3424
2017-07-08T04:19:42.633Z,3612
2017-07-08T04:20:42.610Z,3968
2017-07-08T04:21:42.612Z,4264
2017-07-08T04:22:41.994Z,4368
2017-07-08T04:23:42.312Z,4456
2017-07-08T04:24:42.634Z,4688
2017-07-08T04:25:42.590Z,5080
2017-07-08T04:26:42.607Z,5556
2017-07-08T04:27:42.605Z,6100
2017-07-08T04:28:42.614Z,6604
2017-07-08T04:29:42.605Z,6980
2017-07-08T04:30:42.293Z,7224
2017-07-08T04:31:42.597Z,7252
2017-07-08T04:32:42.596Z,7240
2017-07-08T04:33:42.599Z,7188
2017-07-08T04:34:42.581Z,7160
2017-07-08T04:35:42.279Z,7220
2017-07-08T04:36:42.270Z,7288
2017-07-08T04:37:42.596Z,7364
2017-07-08T04:38:42.588Z,7392
2017-07-08T04:39:42.586Z,7512
2017-07-08T04:40:42.597Z,7704
2017-07-08T04:41:42.562Z,7956
2017-07-08T04:42:42.568Z,8208
2017-07-08T04:43:42.564Z,8560
2017-07-08T04:44:42.572Z,8848
2017-07-08T04:45:42.589Z,9020
2017-07-08T04:46:42.581Z,8900
2017-07-08T04:47:42.563Z,8708
2017-07-08T04:48:42.253Z,8572
2017-07-08T04:49:42.553Z,8724
2017-07-08T04:50:42.550Z,9220
2017-07-08T04:51:42.543Z,9596
2017-07-08T04:52:42.240Z,9692
2017-07-08T04:53:42.560Z,10376
2017-07-08T04:54:42.551Z,12028
2017-07-08T04:55:42.546Z,13200
2017-07-08T04:56:42.554Z,12564
2017-07-08T04:57:42.534Z,9844
2017-07-08T04:58:42.557Z,9768
2017-07-08T04:59:42.538Z,10096
2017-07-08T05:00:42.241Z,10556
2017-07-08T05:01:42.528Z,10868
2017-07-08T05:02:42.562Z,10884
2017-07-08T05:03:42.534Z,10400
2017-07-08T05:04:41.600Z,9428
2017-07-08T05:05:42.221Z,8400
2017-07-08T05:06:41.583Z,7704
2017-07-08T05:07:41.573Z,7524
2017-07-08T05:08:42.230Z,7584
2017-07-08T05:09:42.553Z,7936
2017-07-08T05:10:42.208Z,8144
2017-07-08T05:11:42.225Z,8328
2017-07-08T05:12:42.527Z,8412
2017-07-08T05:13:42.552Z,8528
2017-07-08T05:14:42.229Z,8868
2017-07-08T05:15:42.561Z,9416
2017-07-08T05:16:42.522Z,9812
2017-07-08T05:17:42.226Z,10220
2017-07-08T05:18:42.515Z,10492
2017-07-08T05:19:42.537Z,10516
2017-07-08T05:20:42.206Z,10284
2017-07-08T05:21:42.223Z,9892
2017-07-08T05:22:42.205Z,9724
2017-07-08T05:23:41.894Z,10240
2017-07-08T05:24:42.546Z,11164
2017-07-08T05:25:42.547Z,12320
2017-07-08T05:26:42.218Z,13620
2017-07-08T05:27:42.521Z,14568
2017-07-08T05:28:42.547Z,15904
2017-07-08T05:29:42.546Z,17088
2017-07-08T05:30:42.526Z,17856
2017-07-08T05:31:42.544Z,18176
2017-07-08T05:32:42.531Z,17824
2017-07-08T05:33:42.544Z,18048
2017-07-08T05:34:42.216Z,18336
2017-07-08T05:35:41.913Z,18496
2017-07-08T05:36:42.199Z,17984
2017-07-08T05:37:42.235Z,16768
2017-07-08T05:38:42.534Z,16064
2017-07-08T05:39:42.544Z,16096
2017-07-08T05:40:42.528Z,16256
2017-07-08T05:41:41.891Z,17088
2017-07-08T05:42:42.228Z,18592
2017-07-08T05:43:42.549Z,20288
2017-07-08T05:44:42.559Z,25920
2017-07-08T05:45:42.533Z,28032
2017-07-08T05:46:42.229Z,26912
2017-07-08T05:47:42.223Z,27552
2017-07-08T05:48:42.240Z,27424
2017-07-08T05:49:42.557Z,31328
2017-07-08T05:50:42.540Z,37760
2017-07-08T05:51:42.250Z,39776
2017-07-08T05:52:42.229Z,36672
2017-07-08T05:53:42.571Z,41152
2017-07-08T05:54:42.572Z,40864
2017-07-08T05:55:42.258Z,39040
2017-07-08T05:56:42.265Z,32160
2017-07-08T05:57:42.251Z,27840
2017-07-08T05:58:42.281Z,26784
2017-07-08T05:59:42.603Z,25600
2017-07-08T06:00:42.578Z,27520
2017-07-08T06:01:42.606Z,23392
2017-07-08T06:02:41.974Z,24416
2017-07-08T06:03:42.309Z,28032
2017-07-08T06:04:42.302Z,24480
2017-07-08T06:05:42.314Z,25728
2017-07-08T06:06:42.610Z,29984
2017-07-08T06:07:42.663Z,25024
2017-07-08T06:08:42.312Z,21920
2017-07-08T06:09:42.410Z,22336
2017-07-08T06:10:42.377Z,23136
2017-07-08T06:11:42.681Z,22496
2017-07-08T06:12:42.667Z,20160
2017-07-08T06:13:42.376Z,19936
2017-07-08T06:14:42.685Z,20736
2017-07-08T06:15:42.684Z,22144
2017-07-08T06:16:42.682Z,21344
2017-07-08T06:17:41.765Z,23168
2017-07-08T06:18:42.406Z,24832
2017-07-08T06:19:42.742Z,26016
2017-07-08T06:20:42.402Z,25984
2017-07-08T06:21:42.757Z,30208
2017-07-08T06:22:42.425Z,35040
2017-07-08T06:23:42.754Z,29760
2017-07-08T06:24:42.741Z,27136
2017-07-08T06:25:42.781Z,26272
2017-07-08T06:26:42.459Z,29344
2017-07-08T06:27:42.474Z,29312
2017-07-08T06:28:42.448Z,31648
2017-07-08T06:29:42.787Z,33760
2017-07-08T06:30:42.805Z,29696
2017-07-08T06:31:42.815Z,30560
2017-07-08T06:32:42.508Z,37376
2017-07-08T06:33:42.792Z,38368
2017-07-08T06:34:42.837Z,31104
2017-07-08T06:35:42.509Z,35104
2017-07-08T06:36:42.547Z,31168
2017-07-08T06:37:42.850Z,22240
2017-07-08T06:38:42.883Z,21216
2017-07-08T06:39:42.572Z,23904
2017-07-08T06:40:42.309Z,25728
2017-07-08T06:41:41.955Z,28736
2017-07-08T06:42:42.913Z,23424
2017-07-08T06:43:42.916Z,23040
2017-07-08T06:44:42.277Z,19360
2017-07-08T06:45:42.919Z,18048
2017-07-08T06:46:42.925Z,17312
2017-07-08T06:47:42.956Z,17536
2017-07-08T06:48:42.972Z,18432
2017-07-08T06:49:42.942Z,19744
2017-07-08T06:50:43.015Z,20896
2017-07-08T06:51:42.652Z,21824
2017-07-08T06:52:42.680Z,22912
2017-07-08T06:53:42.976Z,18784
2017-07-08T06:54:43.016Z,18144
2017-07-08T06:55:43.023Z,19328
2017-07-08T06:56:43.023Z,18592
2017-07-08T06:57:43.004Z,20832
2017-07-08T06:58:43.029Z,23520
2017-07-08T06:59:42.396Z,25344
2017-07-08T07:00:42.426Z,22816
2017-07-08T07:01:43.054Z,22720
2017-07-08T07:02:42.744Z,21120
2017-07-08T07:03:43.071Z,19264
2017-07-08T07:04:42.776Z,17824
2017-07-08T07:05:43.086Z,16640
2017-07-08T07:06:42.768Z,18016
2017-07-08T07:07:43.152Z,17088
2017-07-08T07:08:42.793Z,18592
2017-07-08T07:09:42.465Z,20320
2017-07-08T07:10:43.123Z,18976
2017-07-08T07:11:42.481Z,19968
2017-07-08T07:12:42.823Z,21664
2017-07-08T07:13:42.490Z,21088
2017-07-08T07:14:43.140Z,20992
2017-07-08T07:15:43.155Z,21472
2017-07-08T07:16:43.164Z,20768
2017-07-08T07:17:43.157Z,21376
2017-07-08T07:18:43.163Z,21472
2017-07-08T07:19:43.182Z,21024
2017-07-08T07:20:42.843Z,23808
2017-07-08T07:21:43.192Z,21408
2017-07-08T07:22:42.557Z,18976
2017-07-08T07:23:43.207Z,17376
2017-07-08T07:24:42.557Z,16096
2017-07-08T07:25:42.890Z,15140
2017-07-08T07:26:42.881Z,14216
2017-07-08T07:27:42.921Z,13588
2017-07-08T07:28:42.897Z,13676
2017-07-08T07:29:42.921Z,14256
2017-07-08T07:30:43.226Z,14836
2017-07-08T07:31:43.224Z,15316
2017-07-08T07:32:42.946Z,15780
2017-07-08T07:33:42.625Z,16320
2017-07-08T07:34:43.253Z,16960
2017-07-08T07:35:42.959Z,17728
2017-07-08T07:36:42.325Z,18496
2017-07-08T07:37:43.297Z,19296
2017-07-08T07:38:42.645Z,20000
2017-07-08T07:39:42.983Z,20864
2017-07-08T07:40:42.966Z,21408
2017-07-08T07:41:42.997Z,22048
2017-07-08T07:42:42.667Z,22304
2017-07-08T07:43:43.000Z,22336
2017-07-08T07:44:43.013Z,21984
2017-07-08T07:45:42.998Z,21664
2017-07-08T07:46:43.324Z,21664
2017-07-08T07:47:43.013Z,20384
2017-07-08T07:48:43.337Z,19776
2017-07-08T07:49:43.024Z,19200
2017-07-08T07:50:42.699Z,18848
2017-07-08T07:51:43.034Z,18752
2017-07-08T07:52:43.345Z,18944
2017-07-08T07:53:43.362Z,19264
2017-07-08T07:54:43.363Z,19680
2017-07-08T07:55:43.365Z,19904
2017-07-08T07:56:42.757Z,20032
2017-07-08T07:57:43.056Z,20192
2017-07-08T07:58:43.397Z,20256
2017-07-08T07:59:43.389Z,20128
2017-07-08T08:00:43.410Z,19712
2017-07-08T08:01:43.400Z,18976
2017-07-08T08:02:43.087Z,18272
2017-07-08T08:03:42.763Z,17824
2017-07-08T08:04:43.121Z,18112
2017-07-08T08:05:43.110Z,18944
2017-07-08T08:06:43.428Z,19744
2017-07-08T08:07:43.100Z,20576
2017-07-08T08:08:43.410Z,21344
2017-07-08T08:09:42.813Z,22752
2017-07-08T08:10:42.805Z,22016
2017-07-08T08:11:43.152Z,21888
2017-07-08T08:12:43.129Z,22112
2017-07-08T08:13:43.159Z,22880
2017-07-08T08:14:43.461Z,22752
2017-07-08T08:15:43.492Z,21056
2017-07-08T08:16:43.464Z,20832
2017-07-08T08:17:43.496Z,20416
2017-07-08T08:18:43.481Z,19936
2017-07-08T08:19:43.183Z,19648
2017-07-08T08:20:43.166Z,19328
2017-07-08T08:21:43.190Z,18176
2017-07-08T08:22:42.873Z,17248
2017-07-08T08:23:43.179Z,16608
2017-07-08T08:24:43.494Z,16096
2017-07-08T08:25:43.532Z,15904
2017-07-08T08:26:43.215Z,15620
2017-07-08T08:27:43.224Z,15680
2017-07-08T08:28:42.903Z,16128
2017-07-08T08:29:43.545Z,16608
2017-07-08T08:30:43.543Z,16928
2017-07-08T08:31:43.556Z,17216
2017-07-08T08:32:43.534Z,17504
2017-07-08T08:33:43.579Z,17824
2017-07-08T08:34:43.559Z,18144
2017-07-08T08:35:43.264Z,19008
2017-07-08T08:36:43.577Z,19648
2017-07-08T08:37:43.251Z,20032
2017-07-08T08:38:43.520Z,20096
2017-07-08T08:39:43.283Z,20640
2017-07-08T08:40:42.655Z,21024
2017-07-08T08:41:42.966Z,21280
2017-07-08T08:42:43.285Z,21504
2017-07-08T08:43:43.616Z,22048
2017-07-08T08:44:43.623Z,22752
2017-07-08T08:45:42.983Z,24480
2017-07-08T08:46:43.317Z,25600
2017-07-08T08:47:42.994Z,26176
2017-07-08T08:48:43.623Z,24352
2017-07-08T08:49:43.644Z,23808
2017-07-08T08:50:43.018Z,24416
2017-07-08T08:51:43.338Z,24032
2017-07-08T08:52:43.316Z,24800
2017-07-08T08:53:42.708Z,25440
2017-07-08T08:54:43.350Z,28736
2017-07-08T08:55:43.359Z,28256
2017-07-08T08:56:43.053Z,29376
2017-07-08T08:57:43.360Z,30592
2017-07-08T08:58:43.382Z,31584
2017-07-08T08:59:43.679Z,32096
2017-07-08T09:00:43.776Z,30880
2017-07-08T09:01:43.059Z,36160
2017-07-08T09:02:43.097Z,31008
2017-07-08T09:03:43.701Z,30848
2017-07-08T09:04:43.414Z,32384
2017-07-08T09:05:43.398Z,32992
2017-07-08T09:06:43.416Z,31072
2017-07-08T09:07:43.742Z,30496
2017-07-08T09:08:43.450Z,29216
2017-07-08T09:09:43.765Z,26336
2017-07-08T09:10:43.443Z,24896
2017-07-08T09:11:43.129Z,24320
2017-07-08T09:12:43.466Z,24544
2017-07-08T09:13:43.779Z,24800
2017-07-08T09:14:43.466Z,25280
2017-07-08T09:15:43.468Z,25728
2017-07-08T09:16:43.177Z,26208
2017-07-08T09:17:43.475Z,26752
2017-07-08T09:18:43.824Z,28320
2017-07-08T09:19:43.809Z,28384
2017-07-08T09:20:43.840Z,25920
2017-07-08T09:21:43.814Z,25760
2017-07-08T09:22:42.886Z,24864
2017-07-08T09:23:43.509Z,25760
2017-07-08T09:24:43.545Z,26112
2017-07-08T09:25:43.548Z,24960
2017-07-08T09:26:43.549Z,27168
2017-07-08T09:27:43.857Z,24000
2017-07-08T09:28:43.237Z,21280
2017-07-08T09:29:43.572Z,19584
2017-07-08T09:30:43.252Z,19552
2017-07-08T09:31:43.605Z,18560
2017-07-08T09:32:43.575Z,17088
2017-07-08T09:33:43.921Z,13896
2017-07-08T09:34:43.918Z,11112
2017-07-08T09:35:43.926Z,11772
2017-07-08T09:36:43.921Z,14644
2017-07-08T09:37:44.000Z,14088
2017-07-08T09:38:43.615Z,10816
2017-07-08T09:39:43.625Z,9344
2017-07-08T09:40:43.330Z,8788
2017-07-08T09:41:43.958Z,7520
2017-07-08T09:42:43.639Z,7208
2017-07-08T09:43:43.665Z,7060
2017-07-08T09:44:43.966Z,8084
2017-07-08T09:45:43.678Z,11580
2017-07-08T09:46:43.358Z,16384
2017-07-08T09:47:43.689Z,19968
2017-07-08T09:48:44.051Z,19296
2017-07-08T09:49:43.684Z,17088
2017-07-08T09:50:43.676Z,16416
2017-07-08T09:51:44.003Z,17280
2017-07-08T09:52:43.693Z,20096
2017-07-08T09:53:43.723Z,24320
2017-07-08T09:54:44.032Z,29376
2017-07-08T09:55:43.722Z,31296
2017-07-08T09:56:44.033Z,32128
2017-07-08T09:57:43.728Z,32864
2017-07-08T09:58:44.054Z,31936
2017-07-08T09:59:43.741Z,30528
2017-07-08T10:00:44.062Z,27840
2017-07-08T10:01:43.427Z,26304
2017-07-08T10:02:44.078Z,25984
2017-07-08T10:03:43.758Z,25856
2017-07-08T10:04:43.765Z,25120
2017-07-08T10:05:44.104Z,23296
2017-07-08T10:06:43.765Z,22144
2017-07-08T10:07:44.117Z,20256
2017-07-08T10:08:43.778Z,21184
2017-07-08T10:09:43.806Z,22848
2017-07-08T10:10:43.802Z,23456
2017-07-08T10:11:43.805Z,23648
2017-07-08T10:12:44.124Z,22944
2017-07-08T10:13:43.803Z,21856
2017-07-08T10:14:44.150Z,20192
2017-07-08T10:15:43.517Z,18016
2017-07-08T10:16:44.170Z,17888
2017-07-08T10:17:44.143Z,19552
2017-07-08T10:18:43.837Z,21824
2017-07-08T10:19:44.158Z,21824
2017-07-08T10:20:44.185Z,23328
2017-07-08T10:21:44.157Z,27520
2017-07-08T10:22:43.554Z,30208
2017-07-08T10:23:43.878Z,29440
2017-07-08T10:24:44.214Z,27744
2017-07-08T10:25:43.883Z,25728
2017-07-08T10:26:44.214Z,23808
2017-07-08T10:27:44.262Z,22080
2017-07-08T10:28:44.233Z,21888
2017-07-08T10:29:44.218Z,22880
2017-07-08T10:30:43.921Z,23072
2017-07-08T10:31:44.254Z,22752
2017-07-08T10:32:43.942Z,24000
2017-07-08T10:33:44.237Z,24960
2017-07-08T10:34:44.253Z,25120
2017-07-08T10:35:44.253Z,25280
2017-07-08T10:36:44.280Z,24928
2017-07-08T10:37:43.944Z,24512
2017-07-08T10:38:43.979Z,26048
2017-07-08T10:39:44.283Z,27424
2017-07-08T10:40:44.302Z,28864
2017-07-08T10:41:44.292Z,29728
2017-07-08T10:42:43.986Z,29888
2017-07-08T10:43:44.326Z,30368
2017-07-08T10:44:43.691Z,30656
2017-07-08T10:45:43.697Z,30336
2017-07-08T10:46:44.326Z,30208
2017-07-08T10:47:44.329Z,29600
2017-07-08T10:48:44.329Z,28800
2017-07-08T10:49:44.446Z,27744
2017-07-08T10:50:44.354Z,26560
2017-07-08T10:51:44.381Z,24320
2017-07-08T10:52:44.373Z,22272
2017-07-08T10:53:44.384Z,20928
2017-07-08T10:54:44.378Z,21248
2017-07-08T10:55:44.368Z,23872
2017-07-08T10:56:44.400Z,26848
2017-07-08T10:57:43.763Z,28416
2017-07-08T10:58:44.090Z,28512
2017-07-08T10:59:44.405Z,27776
2017-07-08T11:00:44.451Z,26880
2017-07-08T11:01:44.442Z,26336
2017-07-08T11:02:44.122Z,26368
2017-07-08T11:03:44.132Z,27008
2017-07-08T11:04:43.484Z,28032
2017-07-08T11:05:43.828Z,28864
2017-07-08T11:06:44.452Z,29568
2017-07-08T11:07:44.469Z,30016
2017-07-08T11:08:44.485Z,30208
2017-07-08T11:09:43.853Z,29568
2017-07-08T11:10:44.501Z,27296
2017-07-08T11:11:44.181Z,23424
2017-07-08T11:12:44.196Z,21120
2017-07-08T11:13:43.871Z,19904
2017-07-08T11:14:44.514Z,21632
2017-07-08T11:15:44.528Z,24224
2017-07-08T11:16:44.544Z,26144
2017-07-08T11:17:44.547Z,28608
2017-07-08T11:18:44.865Z,28480
2017-07-08T11:19:44.248Z,28544
2017-07-08T11:20:44.573Z,28704
2017-07-08T11:21:44.624Z,29120
2017-07-08T11:22:44.254Z,29664
2017-07-08T11:23:43.941Z,30272
2017-07-08T11:24:44.658Z,31136
2017-07-08T11:25:44.271Z,31008
2017-07-08T11:26:44.305Z,30080
2017-07-08T11:27:44.306Z,29152
2017-07-08T11:28:44.635Z,29184
2017-07-08T11:29:44.622Z,29536
2017-07-08T11:30:44.309Z,30560
2017-07-08T11:31:44.316Z,30752
2017-07-08T11:32:44.349Z,30176
2017-07-08T11:33:44.355Z,29504
2017-07-08T11:34:44.706Z,27872
2017-07-08T11:35:44.346Z,26656
2017-07-08T11:36:44.042Z,26976
2017-07-08T11:37:44.387Z,28736
2017-07-08T11:38:44.381Z,30112
2017-07-08T11:39:44.725Z,31136
2017-07-08T11:40:44.701Z,32000
2017-07-08T11:41:44.412Z,33248
2017-07-08T11:42:44.715Z,33824
2017-07-08T11:43:44.420Z,34112
2017-07-08T11:44:44.102Z,32320
2017-07-08T11:45:44.110Z,30240
2017-07-08T11:46:44.122Z,26144
2017-07-08T11:47:44.750Z,21504
2017-07-08T11:48:44.154Z,18848
2017-07-08T11:49:44.470Z,18048
2017-07-08T11:50:44.772Z,18656
2017-07-08T11:51:44.468Z,19968
2017-07-08T11:52:43.846Z,20512
2017-07-08T11:53:44.494Z,21024
2017-07-08T11:54:44.508Z,22304
2017-07-08T11:55:44.527Z,22816
2017-07-08T11:56:44.508Z,22656
2017-07-08T11:57:44.558Z,22176
2017-07-08T11:58:44.527Z,22592
2017-07-08T11:59:44.865Z,24800
2017-07-08T12:00:44.213Z,26176
2017-07-08T12:01:44.572Z,26912
2017-07-08T12:02:44.568Z,27744
2017-07-08T12:03:44.266Z,29248
2017-07-08T12:04:44.568Z,27200
2017-07-08T12:05:44.881Z,24096
2017-07-08T12:06:44.923Z,21728
2017-07-08T12:07:44.613Z,21440
2017-07-08T12:08:44.626Z,18912
2017-07-08T12:09:44.619Z,17536
2017-07-08T12:10:44.307Z,17024
2017-07-08T12:11:44.632Z,18112
2017-07-08T12:12:44.623Z,21024
2017-07-08T12:13:44.656Z,21088
2017-07-08T12:14:44.963Z,20352
2017-07-08T12:15:44.662Z,20736
2017-07-08T12:16:44.658Z,21120
2017-07-08T12:17:44.698Z,19808
2017-07-08T12:18:44.677Z,18048
2017-07-08T12:19:45.010Z,17472
2017-07-08T12:20:44.056Z,16256
2017-07-08T12:21:44.682Z,13980
2017-07-08T12:22:44.072Z,12836
2017-07-08T12:23:44.715Z,13728
2017-07-08T12:24:45.049Z,14280
2017-07-08T12:25:45.030Z,15980
2017-07-08T12:26:45.062Z,17184
2017-07-08T12:27:44.729Z,16140
2017-07-08T12:28:44.765Z,14892
2017-07-08T12:29:44.755Z,13944
2017-07-08T12:30:44.776Z,13384
2017-07-08T12:31:45.085Z,12688
2017-07-08T12:32:45.111Z,11480
2017-07-08T12:33:44.780Z,11184
2017-07-08T12:34:45.110Z,11568
2017-07-08T12:35:45.114Z,11672
2017-07-08T12:36:44.818Z,12684
2017-07-08T12:37:45.126Z,14188
2017-07-08T12:38:44.497Z,15460
2017-07-08T12:39:45.138Z,14888
2017-07-08T12:40:45.153Z,13932
2017-07-08T12:41:45.148Z,13984
2017-07-08T12:42:45.161Z,14316
2017-07-08T12:43:44.835Z,14408
2017-07-08T12:44:45.192Z,14032
2017-07-08T12:45:45.163Z,13232
2017-07-08T12:46:44.566Z,11256
2017-07-08T12:47:44.872Z,11228
2017-07-08T12:48:44.882Z,11492
2017-07-08T12:49:45.190Z,11704
2017-07-08T12:50:45.213Z,11972
2017-07-08T12:51:44.575Z,11384
2017-07-08T12:52:44.951Z,10992
2017-07-08T12:53:44.890Z,12300
2017-07-08T12:54:45.227Z,14724
2017-07-08T12:55:44.915Z,15544
2017-07-08T12:56:44.931Z,12772
2017-07-08T12:57:45.224Z,10224
2017-07-08T12:58:45.255Z,10168
2017-07-08T12:59:44.928Z,10584
2017-07-08T13:00:45.275Z,12812
2017-07-08T13:01:45.261Z,14492
2017-07-08T13:02:44.641Z,15612
2017-07-08T13:03:45.270Z,17792
2017-07-08T13:04:45.259Z,18176
2017-07-08T13:05:45.314Z,17152
2017-07-08T13:06:45.290Z,15720
2017-07-08T13:07:44.984Z,14084
2017-07-08T13:08:45.291Z,13232
2017-07-08T13:09:45.299Z,12440
2017-07-08T13:10:45.006Z,11388
2017-07-08T13:11:45.012Z,11160
2017-07-08T13:12:45.015Z,12460
2017-07-08T13:13:44.999Z,12044
2017-07-08T13:14:45.332Z,12732
2017-07-08T13:15:45.323Z,12160
2017-07-08T13:16:45.342Z,10960
2017-07-08T13:17:45.352Z,9900
2017-07-08T13:18:45.044Z,7968
2017-07-08T13:19:45.097Z,7204